createdAt,value
2023-03-17T00:02:13.222Z,5.80
2023-03-17T00:04:42.485Z,5.70
2023-03-17T00:07:18.277Z,5.70
2023-03-17T00:09:47.132Z,5.90
2023-03-17T00:12:19.760Z,5.70
2023-03-17T00:14:49.399Z,5.70
2023-03-17T00:17:18.945Z,5.70
2023-03-17T00:19:47.979Z,5.80
2023-03-17T00:22:22.377Z,5.70
2023-03-17T00:24:51.369Z,5.70
2023-03-17T00:27:22.510Z,5.80
2023-03-17T00:29:51.357Z,5.80
2023-03-17T00:32:23.205Z,5.80
2023-03-17T00:34:52.997Z,5.80
2023-03-17T00:37:22.179Z,5.80
2023-03-17T00:39:51.580Z,5.60
2023-03-17T00:42:21.906Z,5.80
2023-03-17T00:44:50.716Z,5.40
2023-03-17T00:47:19.522Z,5.80
2023-03-17T00:49:49.399Z,5.70
2023-03-17T00:52:18.052Z,5.60
2023-03-17T00:54:47.350Z,5.60
2023-03-17T00:57:16.158Z,5.60
2023-03-17T00:59:46.821Z,5.60
2023-03-17T01:02:16.449Z,5.40
2023-03-17T01:04:52.931Z,5.70
2023-03-17T01:07:30.640Z,5.60
2023-03-17T01:09:59.846Z,5.60
2023-03-17T01:12:29.315Z,5.50
2023-03-17T01:15:00.789Z,5.50
2023-03-17T01:17:29.461Z,5.50
2023-03-17T01:19:58.668Z,5.60
2023-03-17T01:22:27.438Z,5.50
2023-03-17T01:24:56.867Z,5.60
2023-03-17T01:27:25.994Z,5.70
2023-03-17T01:29:55.552Z,5.50
2023-03-17T01:32:26.042Z,5.50
2023-03-17T01:34:54.927Z,5.40
2023-03-17T01:37:24.014Z,5.40
2023-03-17T01:39:53.092Z,5.40
2023-03-17T01:42:23.120Z,5.40
2023-03-17T01:45:03.466Z,5.60
2023-03-17T01:47:36.414Z,5.50
2023-03-17T01:50:10.148Z,5.40
2023-03-17T01:52:40.971Z,5.40
2023-03-17T01:55:16.302Z,5.40
2023-03-17T01:57:51.649Z,5.30
2023-03-17T02:00:24.345Z,5.40
2023-03-17T02:02:58.418Z,5.40
2023-03-17T02:05:31.294Z,5.50
2023-03-17T02:08:01.145Z,5.50
2023-03-17T02:10:33.741Z,5.50
2023-03-17T02:13:05.813Z,5.50
2023-03-17T02:15:40.452Z,5.50
2023-03-17T02:18:13.722Z,5.50
2023-03-17T02:21:52.090Z,5.70
2023-03-17T02:24:35.999Z,5.60
2023-03-17T02:27:11.994Z,5.60
2023-03-17T02:29:41.830Z,5.70
2023-03-17T02:32:11.435Z,5.60
2023-03-17T02:34:41.110Z,5.70
2023-03-17T02:37:10.114Z,5.80
2023-03-17T02:39:40.542Z,5.60
2023-03-17T02:42:10.120Z,5.60
2023-03-17T02:44:39.211Z,5.60
2023-03-17T02:47:09.351Z,5.60
2023-03-17T02:49:40.334Z,5.70
2023-03-17T02:52:14.250Z,5.70
2023-03-17T02:54:44.838Z,5.70
2023-03-17T02:57:13.853Z,5.70
2023-03-17T02:59:42.924Z,5.70
2023-03-17T03:02:12.077Z,5.60
2023-03-17T03:04:42.155Z,5.70
2023-03-17T03:07:11.639Z,5.80
2023-03-17T03:09:42.058Z,5.70
2023-03-17T03:12:14.011Z,5.90
2023-03-17T03:14:43.177Z,5.70
2023-03-17T03:17:12.431Z,5.70
2023-03-17T03:19:41.453Z,5.70
2023-03-17T03:22:11.283Z,5.70
2023-03-17T03:24:40.224Z,5.70
2023-03-17T03:27:09.067Z,5.80
2023-03-17T03:29:39.423Z,5.60
2023-03-17T03:32:09.113Z,5.60
2023-03-17T03:34:38.005Z,5.70
2023-03-17T03:37:07.053Z,5.40
2023-03-17T03:39:35.911Z,5.60
2023-03-17T03:42:05.568Z,5.60
2023-03-17T03:44:34.662Z,5.60
2023-03-17T03:47:04.933Z,5.80
2023-03-17T03:49:33.743Z,5.60
2023-03-17T03:52:02.868Z,5.60
2023-03-17T03:54:31.793Z,5.60
2023-03-17T03:57:00.872Z,5.80
2023-03-17T03:59:32.434Z,5.60
2023-03-17T04:02:01.225Z,5.70
2023-03-17T04:04:32.046Z,5.60
2023-03-17T04:07:01.792Z,5.70
2023-03-17T04:09:30.608Z,5.60
2023-03-17T04:11:59.525Z,5.60
2023-03-17T04:14:28.874Z,5.60
2023-03-17T04:16:57.856Z,5.40
2023-03-17T04:19:26.678Z,5.60
2023-03-17T04:21:57.040Z,5.60
2023-03-17T04:24:27.761Z,5.50
2023-03-17T04:26:57.101Z,5.50
2023-03-17T04:29:25.793Z,5.50
2023-03-17T04:31:54.769Z,5.50
2023-03-17T04:34:24.569Z,5.70
2023-03-17T04:36:53.380Z,5.70
2023-03-17T04:39:23.792Z,5.50
2023-03-17T04:41:52.582Z,5.50
2023-03-17T04:44:21.654Z,5.50
2023-03-17T04:46:50.462Z,5.60
2023-03-17T04:49:19.377Z,5.40
2023-03-17T04:51:48.368Z,5.40
2023-03-17T04:54:17.640Z,5.50
2023-03-17T04:56:48.270Z,5.60
2023-03-17T04:59:17.455Z,5.30
2023-03-17T05:01:47.417Z,5.30
2023-03-17T05:04:28.875Z,5.50
2023-03-17T05:06:59.831Z,5.20
2023-03-17T05:09:29.622Z,5.00
2023-03-17T05:12:00.245Z,4.90
2023-03-17T05:14:29.173Z,4.80
2023-03-17T05:16:58.020Z,4.80
2023-03-17T05:19:27.070Z,4.60
2023-03-17T05:21:56.368Z,5.00
2023-03-17T05:24:25.248Z,4.90
2023-03-17T05:26:54.118Z,4.80
2023-03-17T05:29:24.280Z,4.80
2023-03-17T05:31:53.248Z,4.80
2023-03-17T05:34:21.990Z,5.00
2023-03-17T05:36:50.793Z,5.00
2023-03-17T05:39:19.464Z,5.00
2023-03-17T05:41:48.493Z,4.90
2023-03-17T05:44:17.809Z,4.80
2023-03-17T05:46:48.340Z,4.90
2023-03-17T05:49:17.010Z,4.90
2023-03-17T05:51:45.806Z,5.00
2023-03-17T05:54:15.156Z,4.90
2023-03-17T05:56:44.094Z,4.90
2023-03-17T05:59:15.186Z,4.90
2023-03-17T06:01:44.042Z,4.90
2023-03-17T06:04:15.517Z,5.10
2023-03-17T06:06:44.238Z,4.90
2023-03-17T06:09:13.430Z,4.90
2023-03-17T06:11:44.184Z,4.80
2023-03-17T06:14:13.363Z,4.80
2023-03-17T06:16:42.409Z,4.80
2023-03-17T06:19:11.241Z,4.80
2023-03-17T06:21:41.849Z,4.90
2023-03-17T06:24:11.586Z,4.90
2023-03-17T06:26:40.484Z,4.90
2023-03-17T06:29:10.099Z,4.90
2023-03-17T06:31:39.452Z,5.00
2023-03-17T06:34:08.994Z,4.80
2023-03-17T06:36:39.283Z,5.00
2023-03-17T06:39:09.793Z,4.90
2023-03-17T06:41:38.724Z,5.00
2023-03-17T06:44:10.838Z,5.10
2023-03-17T06:46:39.649Z,5.20
2023-03-17T06:59:47.466Z,6.00
2023-03-17T07:02:26.144Z,6.00
2023-03-17T07:04:41.638Z,6.00
2023-03-17T07:07:11.109Z,6.30
2023-03-17T07:09:40.249Z,6.20
2023-03-17T07:12:11.207Z,6.30
2023-03-17T07:14:40.551Z,6.30
2023-03-17T07:17:13.441Z,6.60
2023-03-17T07:19:42.697Z,6.70
2023-03-17T07:22:14.260Z,6.80
2023-03-17T07:24:43.398Z,6.90
2023-03-17T07:27:14.504Z,7.20
2023-03-17T07:29:43.334Z,7.50
2023-03-17T07:32:12.741Z,7.80
2023-03-17T07:34:41.925Z,7.90
2023-03-17T07:37:10.879Z,8.20
2023-03-17T07:39:40.234Z,8.20
2023-03-17T07:42:08.966Z,8.40
2023-03-17T07:44:41.713Z,8.70
2023-03-17T07:47:11.706Z,8.80
2023-03-17T07:49:42.432Z,8.80
2023-03-17T07:52:12.758Z,9.10
2023-03-17T07:54:43.108Z,9.40
2023-03-17T07:57:12.688Z,9.70
2023-03-17T07:59:42.813Z,9.80
2023-03-17T08:02:17.321Z,10.00
2023-03-17T08:04:46.985Z,10.20
2023-03-17T08:07:16.026Z,10.50
2023-03-17T08:09:44.806Z,10.80
2023-03-17T08:12:13.990Z,11.00
2023-03-17T08:14:44.096Z,11.30
2023-03-17T08:17:13.738Z,11.50
2023-03-17T08:19:42.647Z,11.70
2023-03-17T08:22:12.522Z,11.90
2023-03-17T08:24:43.049Z,11.80
2023-03-17T08:27:12.227Z,11.80
2023-03-17T08:29:40.916Z,11.90
2023-03-17T08:32:11.844Z,12.00
2023-03-17T08:34:40.777Z,12.10
2023-03-17T08:37:11.446Z,12.30
2023-03-17T08:39:40.907Z,12.30
2023-03-17T08:42:09.655Z,12.30
2023-03-17T08:44:38.446Z,12.40
2023-03-17T08:47:07.540Z,12.60
2023-03-17T08:49:37.701Z,12.50
2023-03-17T08:52:07.123Z,12.60
2023-03-17T08:54:37.077Z,12.60
2023-03-17T08:57:05.884Z,12.70
2023-03-17T08:59:34.561Z,12.90
2023-03-17T09:02:03.190Z,13.10
2023-03-17T09:04:32.655Z,13.50
2023-03-17T09:07:04.184Z,13.80
2023-03-17T09:09:34.672Z,14.20
2023-03-17T09:12:05.792Z,14.50
2023-03-17T09:14:43.460Z,14.90
2023-03-17T09:17:17.807Z,15.10
2023-03-17T09:19:49.553Z,15.30
2023-03-17T09:22:19.913Z,15.10
2023-03-17T09:24:48.571Z,15.10
2023-03-17T09:27:17.082Z,15.40
2023-03-17T09:29:46.172Z,15.60
2023-03-17T09:32:15.423Z,15.80
2023-03-17T09:34:44.061Z,15.90
2023-03-17T09:37:12.904Z,16.00
2023-03-17T09:39:43.001Z,16.10
2023-03-17T09:42:38.774Z,16.20
2023-03-17T09:45:32.683Z,16.40
2023-03-17T09:48:33.835Z,16.80
2023-03-17T09:51:06.863Z,17.20
2023-03-17T09:53:42.888Z,17.30
2023-03-17T09:56:18.661Z,17.60
2023-03-17T09:58:53.864Z,18.10
2023-03-17T10:01:24.041Z,18.60
2023-03-17T10:03:53.133Z,19.10
2023-03-17T10:06:39.245Z,19.60
2023-03-17T10:09:27.194Z,19.80
2023-03-17T10:12:07.713Z,19.90
2023-03-17T10:14:51.977Z,20.00
2023-03-17T10:17:23.269Z,20.00
2023-03-17T10:20:02.158Z,20.00
2023-03-17T10:22:39.747Z,19.80
2023-03-17T10:25:17.247Z,20.10
2023-03-17T10:27:54.254Z,20.40
2023-03-17T10:30:26.192Z,20.50
2023-03-17T10:33:00.348Z,20.90
2023-03-17T10:35:38.231Z,21.30
2023-03-17T10:38:18.830Z,21.60
2023-03-17T10:40:57.436Z,21.80
2023-03-17T10:43:32.857Z,22.30
2023-03-17T10:46:04.265Z,22.70
2023-03-17T10:48:38.471Z,22.90
2023-03-17T10:51:11.776Z,23.00
2023-03-17T10:53:44.302Z,23.00
2023-03-17T10:56:25.176Z,23.20
2023-03-17T10:58:58.966Z,23.30
2023-03-17T11:01:36.167Z,23.30
2023-03-17T11:04:26.043Z,23.30
2023-03-17T11:07:02.090Z,23.30
2023-03-17T11:09:56.769Z,23.60
2023-03-17T11:12:33.647Z,24.40
2023-03-17T11:15:08.499Z,24.40
2023-03-17T11:17:49.548Z,24.50
2023-03-17T11:20:46.739Z,24.60
2023-03-17T11:23:33.070Z,24.30
2023-03-17T11:26:17.713Z,24.00
2023-03-17T11:28:54.438Z,24.10
2023-03-17T11:31:33.603Z,24.60
2023-03-17T11:34:10.012Z,25.30
2023-03-17T11:36:57.785Z,25.90
2023-03-17T11:39:40.227Z,26.40
2023-03-17T11:42:21.788Z,26.80
2023-03-17T11:45:50.477Z,27.00
2023-03-17T11:48:39.678Z,26.90
2023-03-17T11:51:27.700Z,26.90
2023-03-17T11:54:30.794Z,27.00
2023-03-17T11:57:09.166Z,27.30
2023-03-17T12:01:32.236Z,27.20
2023-03-17T12:06:20.236Z,27.10
2023-03-17T12:08:02.495Z,27.10
2023-03-17T12:10:40.801Z,26.90
2023-03-17T12:13:18.199Z,27.10
2023-03-17T12:16:04.837Z,27.20
2023-03-17T12:18:46.386Z,27.00
2023-03-17T12:21:27.269Z,27.10
2023-03-17T12:24:07.891Z,27.60
2023-03-17T12:26:46.450Z,27.90
2023-03-17T12:29:24.451Z,28.10
2023-03-17T12:32:02.978Z,28.30
2023-03-17T12:34:44.838Z,28.40
2023-03-17T12:37:16.302Z,28.70
2023-03-17T12:39:52.696Z,29.10
2023-03-17T12:42:38.315Z,29.10
2023-03-17T12:45:41.541Z,28.70
2023-03-17T12:48:54.471Z,27.90
2023-03-17T12:51:48.250Z,26.90
2023-03-17T12:54:26.538Z,26.80
2023-03-17T12:57:24.456Z,27.00
2023-03-17T13:00:05.738Z,27.30
2023-03-17T13:02:39.690Z,27.40
2023-03-17T13:05:19.832Z,27.10
2023-03-17T13:08:15.995Z,26.90
2023-03-17T13:10:48.805Z,26.90
2023-03-17T13:13:48.252Z,27.50
2023-03-17T13:16:33.923Z,27.80
2023-03-17T13:19:21.100Z,28.10
2023-03-17T13:22:29.626Z,28.30
2023-03-17T13:25:27.480Z,28.00
2023-03-17T13:28:18.877Z,27.60
2023-03-17T13:31:12.522Z,27.20
2023-03-17T13:33:47.555Z,26.50
2023-03-17T13:36:31.726Z,26.00
2023-03-17T13:39:33.294Z,25.80
2023-03-17T13:42:24.430Z,25.50
2023-03-17T13:45:19.941Z,25.10
2023-03-17T13:47:48.809Z,24.70
2023-03-17T13:50:24.559Z,24.30
2023-03-17T13:53:02.079Z,23.90
2023-03-17T13:55:38.708Z,23.60
2023-03-17T13:58:35.829Z,23.40
2023-03-17T14:01:10.347Z,23.30
2023-03-17T14:03:50.220Z,23.20
2023-03-17T14:06:23.639Z,23.10
2023-03-17T14:08:58.671Z,23.00
2023-03-17T14:11:36.930Z,22.90
2023-03-17T14:14:32.533Z,23.10
2023-03-17T14:17:14.869Z,23.30
2023-03-17T14:20:01.485Z,23.40
2023-03-17T14:22:31.931Z,23.50
2023-03-17T14:25:03.974Z,23.40
2023-03-17T14:27:37.840Z,23.40
2023-03-17T14:30:21.351Z,23.70
2023-03-17T14:32:53.424Z,24.20
2023-03-17T14:35:24.490Z,24.10
2023-03-17T14:37:53.307Z,24.00
2023-03-17T14:40:25.758Z,23.90
2023-03-17T14:42:54.856Z,24.00
2023-03-17T14:45:33.079Z,24.00
2023-03-17T14:48:03.813Z,24.00
2023-03-17T14:50:34.116Z,24.10
2023-03-17T14:53:03.201Z,24.20
2023-03-17T14:55:43.444Z,24.00
2023-03-17T14:58:24.447Z,23.80
2023-03-17T15:01:05.950Z,23.80
2023-03-17T15:03:40.342Z,23.80
2023-03-17T15:06:25.800Z,23.80
2023-03-17T15:08:55.225Z,23.80
2023-03-17T15:11:28.727Z,24.10
2023-03-17T15:14:07.352Z,24.40
2023-03-17T15:16:38.671Z,24.70
2023-03-17T15:19:21.037Z,24.80
2023-03-17T15:21:50.807Z,24.80
2023-03-17T15:24:39.305Z,24.70
2023-03-17T15:27:16.047Z,24.40
2023-03-17T15:29:45.304Z,24.10
2023-03-17T15:32:20.291Z,23.90
2023-03-17T15:34:49.701Z,23.70
2023-03-17T15:37:21.338Z,23.80
2023-03-17T15:39:51.445Z,23.80
2023-03-17T15:42:24.923Z,23.40
2023-03-17T15:44:54.188Z,23.00
2023-03-17T15:47:28.425Z,22.60
2023-03-17T15:50:11.662Z,22.30
2023-03-17T15:52:40.512Z,22.00
2023-03-17T15:55:29.607Z,21.50
2023-03-17T15:58:04.287Z,21.20
2023-03-17T16:00:33.530Z,20.70
2023-03-17T16:03:17.558Z,20.50
2023-03-17T16:05:46.895Z,20.40
2023-03-17T16:08:18.011Z,20.30
2023-03-17T16:10:47.612Z,20.20
2023-03-17T16:13:16.431Z,20.10
2023-03-17T16:15:51.954Z,19.90
2023-03-17T16:18:29.518Z,19.80
2023-03-17T16:20:58.457Z,19.60
2023-03-17T16:23:33.996Z,19.50
2023-03-17T16:26:14.421Z,19.30
2023-03-17T16:28:46.144Z,19.10
2023-03-17T16:31:22.886Z,19.00
2023-03-17T16:33:56.810Z,18.80
2023-03-17T16:36:27.199Z,18.70
2023-03-17T16:38:55.775Z,18.60
2023-03-17T16:41:27.702Z,18.50
2023-03-17T16:44:02.470Z,18.50
2023-03-17T16:46:35.885Z,18.40
2023-03-17T16:49:07.180Z,18.30
2023-03-17T16:51:35.935Z,18.20
2023-03-17T16:54:04.577Z,18.10
2023-03-17T16:56:33.650Z,17.90
2023-03-17T16:59:03.177Z,17.90
2023-03-17T17:01:32.756Z,17.70
2023-03-17T17:04:01.412Z,17.50
2023-03-17T17:06:33.117Z,17.30
2023-03-17T17:09:01.888Z,17.20
2023-03-17T17:11:30.649Z,17.10
2023-03-17T17:13:59.952Z,16.90
2023-03-17T17:16:32.116Z,16.90
2023-03-17T17:19:02.390Z,16.70
2023-03-17T17:21:33.158Z,16.60
2023-03-17T17:24:01.917Z,16.50
2023-03-17T17:26:30.638Z,16.50
2023-03-17T17:28:59.356Z,16.40
2023-03-17T17:31:28.036Z,16.20
2023-03-17T17:33:56.810Z,16.10
2023-03-17T17:36:28.101Z,15.90
2023-03-17T17:38:58.379Z,15.80
2023-03-17T17:41:26.995Z,15.70
2023-03-17T17:43:56.295Z,15.50
2023-03-17T17:46:25.495Z,15.20
2023-03-17T17:48:54.171Z,15.20
2023-03-17T17:51:23.182Z,15.00
2023-03-17T17:53:51.942Z,14.80
2023-03-17T17:56:22.250Z,14.80
2023-03-17T17:58:51.347Z,14.70
2023-03-17T18:01:23.034Z,14.50
2023-03-17T18:03:51.890Z,14.20
2023-03-17T18:06:20.610Z,14.00
2023-03-17T18:08:51.666Z,13.90
2023-03-17T18:11:21.828Z,13.60
2023-03-17T18:13:50.411Z,13.40
2023-03-17T18:16:20.379Z,13.30
2023-03-17T18:18:48.941Z,13.20
2023-03-17T18:21:18.421Z,13.10
2023-03-17T18:23:48.769Z,13.10
2023-03-17T18:26:20.283Z,13.10
2023-03-17T18:28:51.522Z,13.00
2023-03-17T18:31:26.033Z,12.90
2023-03-17T18:33:58.416Z,12.80
2023-03-17T18:36:29.121Z,12.70
2023-03-17T18:38:58.402Z,12.40
2023-03-17T18:41:28.926Z,12.40
2023-03-17T18:43:59.264Z,12.40
2023-03-17T18:46:27.818Z,12.30
2023-03-17T18:48:56.619Z,12.30
2023-03-17T18:51:25.414Z,12.20
2023-03-17T18:53:54.687Z,12.10
2023-03-17T18:56:24.315Z,12.10
2023-03-17T18:58:53.192Z,12.10
2023-03-17T19:01:24.082Z,12.20
2023-03-17T19:03:53.063Z,12.20
2023-03-17T19:06:24.251Z,12.10
2023-03-17T19:08:52.841Z,12.20
2023-03-17T19:11:22.243Z,12.10
2023-03-17T19:13:52.501Z,12.10
2023-03-17T19:16:28.795Z,12.10
2023-03-17T19:18:58.087Z,12.00
2023-03-17T19:21:27.629Z,12.00
2023-03-17T19:23:56.111Z,11.80
2023-03-17T19:26:24.542Z,11.60
2023-03-17T19:28:56.202Z,11.60
2023-03-17T19:31:26.503Z,11.50
2023-03-17T19:33:55.883Z,11.60
2023-03-17T19:36:24.572Z,11.50
2023-03-17T19:38:53.145Z,11.50
2023-03-17T19:41:21.708Z,11.50
2023-03-17T19:43:50.344Z,11.50
2023-03-17T19:46:18.872Z,11.50
2023-03-17T19:48:48.986Z,11.50
2023-03-17T19:51:18.204Z,11.40
2023-03-17T19:53:46.935Z,11.20
2023-03-17T19:56:15.438Z,11.10
2023-03-17T19:58:44.062Z,11.10
2023-03-17T20:01:13.608Z,11.10
2023-03-17T20:03:42.679Z,11.10
2023-03-17T20:06:14.815Z,11.10
2023-03-17T20:08:44.650Z,11.10
2023-03-17T20:11:16.675Z,11.20
2023-03-17T20:13:47.844Z,11.20
2023-03-17T20:16:17.445Z,11.20
2023-03-17T20:18:46.248Z,11.20
2023-03-17T20:21:16.728Z,11.20
2023-03-17T20:23:45.470Z,11.20
2023-03-17T20:26:14.359Z,11.20
2023-03-17T20:28:43.120Z,11.20
2023-03-17T20:31:11.776Z,11.20
2023-03-17T20:33:40.564Z,11.10
2023-03-17T20:36:09.875Z,11.10
2023-03-17T20:38:40.004Z,11.10
2023-03-17T20:41:12.487Z,11.10
2023-03-17T20:43:41.875Z,11.00
2023-03-17T20:46:18.580Z,10.90
2023-03-17T20:48:48.291Z,10.90
2023-03-17T20:51:17.984Z,10.90
2023-03-17T20:53:50.131Z,10.90
2023-03-17T20:56:22.313Z,10.80
2023-03-17T20:58:53.374Z,10.80
2023-03-17T21:01:23.635Z,10.70
2023-03-17T21:03:53.660Z,10.60
2023-03-17T21:06:24.808Z,10.60
2023-03-17T21:08:56.258Z,10.60
2023-03-17T21:11:26.645Z,10.60
2023-03-17T21:13:56.229Z,10.50
2023-03-17T21:16:27.810Z,10.50
2023-03-17T21:18:56.452Z,10.50
2023-03-17T21:21:27.965Z,10.40
2023-03-17T21:23:58.392Z,10.30
2023-03-17T21:26:27.259Z,10.30
2023-03-17T21:28:57.174Z,10.20
2023-03-17T21:31:26.575Z,10.20
2023-03-17T21:33:55.701Z,10.10
2023-03-17T21:36:25.015Z,9.90
2023-03-17T21:38:53.863Z,9.90
2023-03-17T21:41:33.347Z,9.90
2023-03-17T21:44:03.761Z,9.90
2023-03-17T21:46:33.782Z,9.90
2023-03-17T21:49:02.885Z,9.90
2023-03-17T21:51:32.281Z,9.80
2023-03-17T21:54:01.344Z,9.70
2023-03-17T21:56:32.175Z,9.70
2023-03-17T21:59:01.035Z,9.80
2023-03-17T22:01:30.066Z,9.80
2023-03-17T22:03:59.695Z,9.80
2023-03-17T22:06:29.562Z,9.80
2023-03-17T22:08:58.412Z,9.80
2023-03-17T22:11:27.268Z,9.80
2023-03-17T22:13:58.609Z,9.80
2023-03-17T22:16:27.837Z,9.80
2023-03-17T22:18:57.016Z,9.80
2023-03-17T22:21:26.213Z,9.80
2023-03-17T22:23:55.130Z,9.80
2023-03-17T22:26:24.523Z,9.90
2023-03-17T22:28:53.640Z,9.90
2023-03-17T22:31:27.346Z,9.70
2023-03-17T22:33:58.824Z,9.90
2023-03-17T22:36:28.697Z,9.90
2023-03-17T22:38:58.829Z,9.90
2023-03-17T22:41:30.245Z,9.90
2023-03-17T22:43:59.668Z,9.80
2023-03-17T22:46:30.188Z,9.80
2023-03-17T22:48:58.792Z,9.80
2023-03-17T22:51:28.558Z,9.80
2023-03-17T22:53:58.118Z,9.80
2023-03-17T22:56:27.739Z,9.80
2023-03-17T22:58:57.307Z,9.80
2023-03-17T23:01:26.238Z,9.80
2023-03-17T23:03:57.187Z,9.80
2023-03-17T23:06:26.494Z,9.70
2023-03-17T23:08:55.314Z,9.70
2023-03-17T23:11:27.187Z,9.70
2023-03-17T23:13:57.056Z,9.70
2023-03-17T23:16:27.394Z,9.70
2023-03-17T23:18:57.860Z,9.70
2023-03-17T23:21:31.021Z,9.70
2023-03-17T23:24:00.187Z,9.60
2023-03-17T23:26:30.181Z,9.70
2023-03-17T23:28:59.353Z,9.60
2023-03-17T23:31:28.262Z,9.60
2023-03-17T23:33:58.750Z,9.50
2023-03-17T23:36:28.130Z,9.50
2023-03-17T23:38:57.803Z,9.40
2023-03-17T23:41:27.217Z,9.50
2023-03-17T23:43:56.891Z,9.40
2023-03-17T23:46:25.847Z,9.40
2023-03-17T23:48:55.016Z,9.40
2023-03-17T23:51:25.392Z,9.40
2023-03-17T23:53:54.621Z,9.30
2023-03-17T23:56:23.261Z,9.30
2023-03-17T23:58:52.334Z,9.10
